Isla Saona, Dominican Republic
Current Conditions -  °F | °C
As of 2:00 PM on Friday 28 Nov 2014 (Local Time) from MDPC Reporting Station
Few Clouds Few Clouds  
Wind Chill: 29°   Ceiling: Unl
Heat Index: 31°   Visibility: 6mi
Dew Point: 21°   Wind: 7mph
Humidity: 62%   Direction: 130°SE
Pressure: 29.91"   Gusts: NA
Location:  18.09°N, 67.89°W
Report Text: MDPC 281800Z 13006KT 9999 FEW025 29/21 Q1013
Loading
Personal Weather Stations






























Interactive Weather Map New forecast layout! Learn more

10-Day Weather Forecast

Advertisements
Track Severe Weather on mobile